Time;durP1;ratioP1;P1;durP2;ratioP2;P2;SDS_P1;SDS_P2;PMS_P1;PMS_P2;Temp;Humidity;BMP_temperature;BMP_pressure;BME280_temperature;BME280_humidity;BME280_pressure;Samples;Min_cycle;Max_cycle;Signal;HPM_P1;HPM_P2
2023/04/30 00:02:21;;;;;;;6.43;3.30;;;;;;;6.80;81.74;101516.59;4990416;28;20211;-70
2023/04/30 00:04:47;;;;;;;7.57;3.10;;;;;;;6.79;81.84;101515.72;4995904;28;20227;-69
2023/04/30 00:07:14;;;;;;;4.97;3.30;;;;;;;6.81;82.40;101519.16;4987070;28;20239;-70
2023/04/30 00:09:42;;;;;;;4.87;3.37;;;;;;;6.79;82.24;101515.72;4987932;28;20740;-70
2023/04/30 00:12:08;;;;;;;4.83;2.93;;;;;;;6.78;82.44;101516.63;4989645;28;20203;-69
2023/04/30 00:14:35;;;;;;;5.93;3.27;;;;;;;6.76;82.64;101523.75;4989261;28;20212;-70
2023/04/30 00:17:02;;;;;;;5.77;3.00;;;;;;;6.77;82.80;101524.63;4985931;28;20254;-70
2023/04/30 00:19:28;;;;;;;6.00;3.13;;;;;;;6.75;82.99;101514.09;4986149;28;20687;-69
2023/04/30 00:21:54;;;;;;;6.60;3.20;;;;;;;6.76;83.25;101522.91;4987146;28;20734;-69
2023/04/30 00:24:21;;;;;;;6.40;3.17;;;;;;;6.76;83.04;101525.53;4989819;28;20218;-69
2023/04/30 00:26:49;;;;;;;7.20;3.40;;;;;;;6.72;83.36;101522.13;4989001;28;20242;-69
2023/04/30 00:29:15;;;;;;;10.57;5.30;;;;;;;6.72;83.77;101531.84;4995659;28;20207;-69
2023/04/30 00:31:41;;;;;;;11.80;6.80;;;;;;;6.71;83.47;101527.47;4993163;28;20202;-70
2023/04/30 00:34:08;;;;;;;13.73;7.00;;;;;;;6.69;83.97;101531.94;4996655;28;20218;-69
2023/04/30 00:36:35;;;;;;;10.10;5.13;;;;;;;6.67;83.81;101529.34;4987971;28;20289;-70
2023/04/30 00:39:01;;;;;;;6.93;4.27;;;;;;;6.66;84.28;101532.91;4989724;28;20727;-69
2023/04/30 00:41:29;;;;;;;4.83;3.70;;;;;;;6.65;84.37;101531.19;4988519;28;20227;-69
2023/04/30 00:43:56;;;;;;;8.33;3.47;;;;;;;6.62;84.43;101544.53;4986617;28;20213;-69
2023/04/30 00:46:23;;;;;;;6.40;3.57;;;;;;;6.60;84.48;101546.38;4986345;28;20627;-69
2023/04/30 00:48:50;;;;;;;8.07;3.47;;;;;;;6.57;84.53;101543.81;4986386;28;20676;-69
2023/04/30 00:51:16;;;;;;;7.87;3.60;;;;;;;6.54;84.30;101543.91;4985623;28;20250;-69
2023/04/30 00:53:43;;;;;;;5.57;3.70;;;;;;;6.51;84.21;101547.50;4988142;28;20218;-69
2023/04/30 00:56:10;;;;;;;8.37;4.77;;;;;;;6.49;84.60;101543.19;4988367;28;20211;-70
2023/04/30 00:58:36;;;;;;;6.77;4.20;;;;;;;6.46;84.56;101548.56;4987040;28;20195;-69
2023/04/30 01:01:05;;;;;;;6.17;4.30;;;;;;;6.43;85.19;101549.56;4987703;28;20250;-70
2023/04/30 01:03:34;;;;;;;6.50;4.00;;;;;;;6.41;84.95;101555.81;4984323;28;20214;-70
2023/04/30 01:06:01;;;;;;;6.40;4.00;;;;;;;6.38;85.33;101558.53;4982953;28;20211;-69
2023/04/30 01:08:27;;;;;;;5.40;3.80;;;;;;;6.36;85.28;101555.09;4987423;28;20207;-69
2023/04/30 01:11:04;;;;;;;6.43;4.10;;;;;;;6.33;85.26;101563.97;4987568;28;20208;-70
2023/04/30 01:13:39;;;;;;;8.73;4.47;;;;;;;6.30;85.79;101548.19;4987789;28;20199;-70
2023/04/30 01:16:15;;;;;;;12.30;4.97;;;;;;;6.27;85.75;101546.50;4985246;28;20746;-70
2023/04/30 01:18:48;;;;;;;6.00;3.90;;;;;;;6.25;86.02;101556.28;4987232;28;20735;-69
2023/04/30 01:21:17;;;;;;;8.30;4.30;;;;;;;6.22;85.87;101556.38;4992819;28;20231;-69
2023/04/30 01:24:03;;;;;;;5.30;3.80;;;;;;;6.21;86.04;101561.72;4984070;28;20653;-70
2023/04/30 01:26:42;;;;;;;6.53;3.70;;;;;;;6.17;85.99;101568.00;4985326;28;20227;-70
2023/04/30 01:29:11;;;;;;;8.17;3.93;;;;;;;6.15;86.63;101573.34;4984890;28;20203;-70
2023/04/30 01:31:38;;;;;;;7.93;3.50;;;;;;;6.13;86.56;101571.66;4987465;28;20222;-70
2023/04/30 01:34:04;;;;;;;5.77;4.10;;;;;;;6.11;86.16;101566.41;4988363;28;20211;-70
2023/04/30 01:36:45;;;;;;;6.60;3.67;;;;;;;6.08;86.53;101571.81;4987444;28;20219;-71
2023/04/30 01:39:31;;;;;;;6.27;3.80;;;;;;;6.05;86.59;101574.53;4988275;28;20214;-71
2023/04/30 01:42:07;;;;;;;5.60;3.27;;;;;;;6.03;86.76;101583.44;4988212;28;20467;-70
2023/04/30 01:44:45;;;;;;;6.33;3.80;;;;;;;6.01;87.18;101578.19;4984349;28;20215;-70
2023/04/30 01:47:22;;;;;;;6.53;4.07;;;;;;;5.99;87.30;101582.66;4985735;28;20230;-70
2023/04/30 01:49:57;;;;;;;6.00;3.40;;;;;;;5.97;87.29;101579.19;4987574;28;20222;-70
2023/04/30 01:52:33;;;;;;;6.40;3.93;;;;;;;5.95;87.32;101583.66;4986916;28;20584;-70
2023/04/30 01:55:05;;;;;;;4.93;2.97;;;;;;;5.92;87.33;101587.25;4987469;28;20490;-70
2023/04/30 01:57:35;;;;;;;7.83;3.60;;;;;;;5.91;87.35;101588.16;4986331;28;20318;-70
2023/04/30 02:00:04;;;;;;;6.43;3.30;;;;;;;5.90;87.78;101583.81;4986780;28;20208;-70
2023/04/30 02:02:31;;;;;;;8.23;4.30;;;;;;;5.88;87.56;101584.72;4983999;28;20223;-70
2023/04/30 02:04:57;;;;;;;7.03;3.60;;;;;;;5.86;87.46;101597.13;4987339;28;20218;-71
2023/04/30 02:07:40;;;;;;;8.07;4.10;;;;;;;5.82;87.42;101592.81;4985675;28;20226;-70
2023/04/30 02:10:08;;;;;;;8.30;3.20;;;;;;;5.79;87.09;101599.06;4984080;28;20700;-70
2023/04/30 02:12:34;;;;;;;4.50;2.90;;;;;;;5.73;86.97;101599.22;4986591;28;20203;-70
2023/04/30 02:15:01;;;;;;;4.73;2.83;;;;;;;5.67;86.96;101599.41;4987485;28;20222;-70
2023/04/30 02:17:28;;;;;;;6.27;3.13;;;;;;;5.64;87.05;101599.50;4992004;28;20569;-71
2023/04/30 02:19:55;;;;;;;8.07;3.33;;;;;;;5.59;86.93;101594.31;4985784;28;20203;-70
2023/04/30 02:22:21;;;;;;;10.63;3.70;;;;;;;5.54;86.85;101596.25;4985308;28;20310;-71
2023/04/30 02:24:48;;;;;;;4.80;3.17;;;;;;;5.53;86.92;101597.16;4986964;28;20212;-71
2023/04/30 02:27:15;;;;;;;4.73;3.23;;;;;;;5.49;87.17;101600.78;4983357;28;20712;-70
2023/04/30 02:29:41;;;;;;;4.53;3.40;;;;;;;5.47;87.06;101601.72;4986246;28;20664;-69
2023/04/30 02:32:08;;;;;;;4.93;3.50;;;;;;;5.45;87.41;101601.78;4987357;28;20598;-70
2023/04/30 02:34:36;;;;;;;9.20;3.67;;;;;;;5.44;87.22;101599.16;4986782;28;20211;-70
2023/04/30 02:37:02;;;;;;;5.83;3.10;;;;;;;5.41;87.02;101600.13;4987975;28;20228;-70
2023/04/30 02:39:29;;;;;;;3.77;2.57;;;;;;;5.33;86.09;101601.25;4982607;28;20847;-70
2023/04/30 02:41:55;;;;;;;4.80;2.50;;;;;;;5.24;86.28;101597.91;4983904;28;20231;-70
2023/04/30 02:44:22;;;;;;;5.93;3.23;;;;;;;5.19;86.09;101601.63;4987374;28;20203;-70
2023/04/30 02:46:48;;;;;;;4.87;2.90;;;;;;;5.10;85.71;101597.41;4990847;28;20232;-70
2023/04/30 02:49:14;;;;;;;6.83;2.90;;;;;;;5.03;85.43;101597.59;4991060;28;20207;-70
2023/04/30 02:51:42;;;;;;;5.60;3.00;;;;;;;4.98;86.07;101602.16;4992541;28;20465;-70
2023/04/30 02:54:09;;;;;;;7.37;3.43;;;;;;;4.93;85.63;101607.53;4988942;28;20219;-70
2023/04/30 02:56:35;;;;;;;3.80;2.90;;;;;;;4.87;85.48;101608.53;4990874;28;20255;-70
2023/04/30 02:59:02;;;;;;;7.13;3.20;;;;;;;4.84;86.25;101611.25;4988878;28;20212;-70
2023/04/30 03:01:28;;;;;;;5.17;3.43;;;;;;;4.80;86.19;101609.63;4990573;28;20310;-70
2023/04/30 03:03:55;;;;;;;4.90;3.20;;;;;;;4.78;86.32;101614.06;4990457;28;20691;-70
2023/04/30 03:06:21;;;;;;;5.43;3.20;;;;;;;4.77;86.80;101620.25;4988540;28;20238;-70
2023/04/30 03:08:49;;;;;;;5.00;3.40;;;;;;;4.76;86.72;101612.38;4989658;28;20214;-70
2023/04/30 03:11:15;;;;;;;6.60;3.27;;;;;;;4.75;86.67;101611.50;4988860;28;20215;-69
2023/04/30 03:13:43;;;;;;;7.23;3.57;;;;;;;4.74;87.03;101614.16;4989432;28;20222;-70
2023/04/30 03:16:10;;;;;;;6.53;3.67;;;;;;;4.73;87.12;101608.03;4989154;28;20216;-70
2023/04/30 03:18:36;;;;;;;7.97;3.40;;;;;;;4.73;87.26;101618.56;4990510;28;20203;-70
2023/04/30 03:21:02;;;;;;;7.83;3.43;;;;;;;4.71;87.26;101619.50;4995147;28;20211;-71
2023/04/30 03:23:29;;;;;;;5.33;2.97;;;;;;;4.67;87.03;101618.72;4986061;28;20561;-70
2023/04/30 03:25:57;;;;;;;4.60;2.90;;;;;;;4.64;87.27;101615.31;4998266;28;20207;-70
2023/04/30 03:28:23;;;;;;;5.50;2.50;;;;;;;4.58;86.99;101626.84;4990964;28;20227;-70
2023/04/30 03:30:50;;;;;;;5.00;3.17;;;;;;;4.50;86.36;101624.38;4995359;28;20204;-70
2023/04/30 03:33:16;;;;;;;4.23;2.57;;;;;;;4.41;86.28;101616.69;4989895;28;20207;-70
2023/04/30 03:35:43;;;;;;;5.57;2.80;;;;;;;4.36;86.39;101612.41;4990001;28;20203;-70
2023/04/30 03:38:09;;;;;;;6.03;3.00;;;;;;;4.31;86.31;101619.53;4986358;28;20227;-70
2023/04/30 03:40:36;;;;;;;3.90;2.83;;;;;;;4.28;86.08;101612.59;4983778;28;20208;-70
2023/04/30 03:43:04;;;;;;;4.37;2.93;;;;;;;4.25;87.08;101617.94;4986834;28;20227;-70
2023/04/30 03:45:30;;;;;;;5.00;3.00;;;;;;;4.23;86.72;101621.50;4987687;28;20204;-70
2023/04/30 03:47:57;;;;;;;3.47;2.70;;;;;;;4.18;86.77;101626.88;4986135;28;20322;-70
2023/04/30 03:50:23;;;;;;;6.87;2.70;;;;;;;4.14;87.19;101623.41;4988119;28;20215;-70
2023/04/30 03:52:49;;;;;;;4.23;3.17;;;;;;;4.13;87.10;101626.97;4986399;28;20207;-70
2023/04/30 03:55:16;;;;;;;5.90;3.07;;;;;;;4.11;87.11;101628.78;4986241;28;20207;-70
2023/04/30 03:57:42;;;;;;;8.03;3.07;;;;;;;4.12;87.23;101642.84;4988102;28;20231;-70
2023/04/30 04:00:12;;;;;;;5.40;2.97;;;;;;;4.10;87.54;101634.97;4985516;28;20223;-70
2023/04/30 04:02:39;;;;;;;7.10;3.43;;;;;;;4.08;87.68;101636.75;4984012;28;20281;-70
2023/04/30 04:05:06;;;;;;;3.90;2.97;;;;;;;4.06;87.74;101638.56;4988578;28;20211;-70
2023/04/30 04:07:33;;;;;;;3.20;2.53;;;;;;;4.01;87.14;101642.16;4990357;28;20343;-70
2023/04/30 04:10:00;;;;;;;5.60;3.37;;;;;;;3.93;86.29;101639.72;4993269;28;20218;-70
2023/04/30 04:12:26;;;;;;;7.50;3.67;;;;;;;3.88;86.32;101652.09;4990172;28;20203;-70
2023/04/30 04:14:53;;;;;;;3.97;3.20;;;;;;;3.86;86.79;101647.75;4986854;28;20289;-70
2023/04/30 04:17:21;;;;;;;5.10;2.87;;;;;;;3.83;86.66;101649.56;4995883;28;20227;-70
2023/04/30 04:19:47;;;;;;;13.07;3.40;;;;;;;3.81;87.59;101655.75;4982053;28;20204;-70
2023/04/30 04:22:13;;;;;;;7.30;2.70;;;;;;;3.78;86.75;101664.56;4991451;28;20231;-70
2023/04/30 04:24:40;;;;;;;3.50;2.80;;;;;;;3.76;87.59;101662.88;4989752;28;20215;-70
2023/04/30 04:27:07;;;;;;;6.87;4.20;;;;;;;3.74;87.64;101657.66;4988018;28;20234;-70
2023/04/30 04:29:33;;;;;;;9.43;3.80;;;;;;;3.74;87.64;101670.81;4987570;28;20668;-70
2023/04/30 04:32:01;;;;;;;6.80;3.03;;;;;;;3.73;87.79;101669.09;4989232;28;20210;-70
2023/04/30 04:34:29;;;;;;;4.60;3.03;;;;;;;3.72;87.95;101669.97;4987814;28;20917;-70
2023/04/30 04:36:57;;;;;;;6.13;2.60;;;;;;;3.70;87.97;101668.25;4989028;28;20617;-70
2023/04/30 04:39:23;;;;;;;4.07;2.50;;;;;;;3.67;87.52;101677.09;4988006;28;20741;-70
2023/04/30 04:41:49;;;;;;;6.97;3.40;;;;;;;3.67;88.09;101679.72;4989915;28;20732;-70
2023/04/30 04:44:17;;;;;;;7.77;3.93;;;;;;;3.68;88.33;101670.06;4987663;28;20300;-70
2023/04/30 04:46:44;;;;;;;4.43;3.30;;;;;;;3.70;88.71;101674.41;4988555;28;20270;-70
2023/04/30 04:49:11;;;;;;;4.63;3.07;;;;;;;3.69;89.41;101671.78;4986494;28;20580;-70
2023/04/30 04:51:39;;;;;;;7.60;3.07;;;;;;;3.68;88.72;101673.56;4987063;28;20613;-70
2023/04/30 04:54:06;;;;;;;5.63;3.07;;;;;;;3.67;89.61;101681.50;4983580;28;20232;-70
2023/04/30 04:56:32;;;;;;;4.93;3.50;;;;;;;3.66;89.90;101683.25;4984068;28;20310;-70
2023/04/30 04:58:59;;;;;;;11.53;3.53;;;;;;;3.65;90.44;101683.28;4987258;28;20334;-70
2023/04/30 05:01:25;;;;;;;5.20;3.47;;;;;;;3.66;89.95;101685.03;4983666;28;20603;-70
2023/04/30 05:03:52;;;;;;;6.33;3.43;;;;;;;3.68;90.75;101685.88;4987209;28;20685;-70
2023/04/30 05:06:19;;;;;;;7.07;4.33;;;;;;;3.71;91.54;101696.34;4984713;28;21691;-70
2023/04/30 05:08:47;;;;;;;7.53;3.67;;;;;;;3.74;91.61;101689.25;4982279;28;20212;-70
2023/04/30 05:11:13;;;;;;;7.03;4.03;;;;;;;3.80;92.32;101694.41;4984684;28;20211;-70
2023/04/30 05:13:40;;;;;;;8.30;4.20;;;;;;;3.88;92.51;101694.28;4986908;28;20547;-70
2023/04/30 05:16:06;;;;;;;7.90;3.80;;;;;;;3.95;93.10;101703.78;4986566;28;20515;-70
2023/04/30 05:18:33;;;;;;;5.93;4.17;;;;;;;4.03;93.76;101699.22;4983464;28;20706;-70
2023/04/30 05:20:59;;;;;;;10.40;5.30;;;;;;;4.09;93.37;101703.53;4989760;28;20212;-70
2023/04/30 05:23:27;;;;;;;6.50;5.00;;;;;;;4.14;94.20;101697.25;4986942;28;20232;-70
2023/04/30 05:25:55;;;;;;;8.13;4.83;;;;;;;4.23;94.70;101700.59;4988411;28;20211;-71
2023/04/30 05:28:22;;;;;;;8.70;5.30;;;;;;;4.31;95.37;101701.31;4987457;28;20235;-70
2023/04/30 05:30:48;;;;;;;13.90;5.63;;;;;;;4.39;95.34;101704.66;4989907;28;20214;-70
2023/04/30 05:33:15;;;;;;;8.47;5.37;;;;;;;4.45;95.64;101708.03;4984803;28;20207;-71
2023/04/30 05:35:42;;;;;;;11.40;5.97;;;;;;;4.55;96.66;101706.06;4987082;28;20231;-70
2023/04/30 05:38:08;;;;;;;12.47;5.70;;;;;;;4.66;96.97;101716.41;4985642;28;20439;-71
2023/04/30 05:40:34;;;;;;;10.77;5.00;;;;;;;4.77;97.89;101712.63;4986779;28;20207;-70
2023/04/30 05:43:02;;;;;;;12.67;5.90;;;;;;;4.90;99.38;101715.84;4982298;28;20308;-70
2023/04/30 05:45:29;;;;;;;8.53;5.47;;;;;;;5.04;100.00;101712.88;4983415;28;20238;-70
2023/04/30 05:47:55;;;;;;;11.00;5.20;;;;;;;5.18;100.00;101716.94;4987215;28;20554;-70
2023/04/30 05:50:22;;;;;;;9.17;4.70;;;;;;;5.32;100.00;101703.38;4985038;28;20579;-70
2023/04/30 05:52:48;;;;;;;10.67;5.00;;;;;;;5.45;100.00;101703.94;4983690;28;20235;-70
2023/04/30 05:55:15;;;;;;;9.33;4.83;;;;;;;5.55;100.00;101716.84;4982336;28;20215;-71
2023/04/30 05:57:41;;;;;;;8.70;5.00;;;;;;;5.71;100.00;101711.22;4985623;28;20238;-70
2023/04/30 06:00:11;;;;;;;9.07;5.07;;;;;;;5.83;100.00;101711.75;4982815;28;20211;-70
2023/04/30 06:02:37;;;;;;;10.27;4.87;;;;;;;5.99;100.00;101722.78;4985964;28;20226;-70
2023/04/30 06:05:04;;;;;;;7.53;3.83;;;;;;;6.13;100.00;101720.63;4988120;28;20207;-69
2023/04/30 06:07:31;;;;;;;6.50;4.00;;;;;;;6.25;98.92;101730.03;4986698;28;20226;-70
2023/04/30 06:09:57;;;;;;;6.27;3.67;;;;;;;6.35;98.20;101720.91;4986823;28;20454;-70
2023/04/30 06:12:24;;;;;;;9.10;3.93;;;;;;;6.46;96.64;101723.22;4983268;28;20771;-70
2023/04/30 06:14:51;;;;;;;6.37;3.30;;;;;;;6.58;95.84;101728.16;4983673;28;20222;-70
2023/04/30 06:17:19;;;;;;;9.17;4.00;;;;;;;6.67;94.88;101722.59;4977636;28;20582;-70
2023/04/30 06:19:45;;;;;;;9.10;3.67;;;;;;;6.79;93.06;101726.66;4982211;28;20218;-70
2023/04/30 06:22:12;;;;;;;8.07;3.80;;;;;;;6.88;91.64;101721.94;4985274;28;20235;-69
2023/04/30 06:24:39;;;;;;;11.87;3.83;;;;;;;7.01;90.07;101718.91;4985955;28;20214;-70
2023/04/30 06:27:05;;;;;;;9.27;3.43;;;;;;;7.12;89.13;101719.44;4990360;28;20786;-70
2023/04/30 06:29:32;;;;;;;6.90;3.00;;;;;;;7.29;88.21;101722.41;4994880;28;20196;-70
2023/04/30 06:31:58;;;;;;;8.63;2.80;;;;;;;7.40;86.02;101732.66;4991693;28;20208;-71
2023/04/30 06:34:26;;;;;;;11.50;2.60;;;;;;;7.46;83.77;101729.81;4993921;28;20758;-70
2023/04/30 06:36:53;;;;;;;4.30;2.33;;;;;;;7.51;81.08;101726.09;4988215;28;20231;-70
2023/04/30 06:39:19;;;;;;;6.63;2.47;;;;;;;7.54;79.16;101725.09;4995802;28;20221;-70
2023/04/30 06:41:47;;;;;;;7.63;2.97;;;;;;;7.60;77.59;101730.19;4991254;28;20219;-69
2023/04/30 06:44:13;;;;;;;9.20;2.97;;;;;;;7.66;76.89;101728.22;4991868;28;20223;-70
2023/04/30 06:46:40;;;;;;;5.37;2.67;;;;;;;7.82;77.10;101725.91;4990505;28;20269;-70
2023/04/30 06:49:07;;;;;;;5.83;2.97;;;;;;;7.94;75.87;101725.47;4990067;28;20218;-70
2023/04/30 06:51:35;;;;;;;6.53;2.70;;;;;;;8.06;74.40;101726.81;4988100;28;20204;-70
2023/04/30 06:54:01;;;;;;;7.10;2.83;;;;;;;8.17;73.35;101719.34;4988429;28;20212;-70
2023/04/30 06:56:28;;;;;;;7.57;2.50;;;;;;;8.24;71.51;101715.53;4990806;28;20243;-69
2023/04/30 06:58:54;;;;;;;7.33;2.73;;;;;;;8.34;72.02;101716.97;4987854;28;20214;-71
2023/04/30 07:01:21;;;;;;;6.70;2.60;;;;;;;8.48;71.54;101716.44;4983379;28;20212;-71
2023/04/30 07:03:47;;;;;;;7.20;2.87;;;;;;;8.58;70.50;101727.59;4986310;28;20748;-70
2023/04/30 07:06:14;;;;;;;9.07;3.00;;;;;;;8.71;70.32;101718.22;4989370;28;20211;-70
2023/04/30 07:08:42;;;;;;;4.33;2.30;;;;;;;8.80;69.23;101724.97;4982832;28;20214;-71
2023/04/30 07:11:09;;;;;;;5.17;2.67;;;;;;;8.90;68.47;101727.22;4986537;28;20323;-70
2023/04/30 07:13:36;;;;;;;6.37;2.33;;;;;;;9.02;67.92;101728.50;4993181;28;20690;-71
2023/04/30 07:16:03;;;;;;;7.10;2.57;;;;;;;9.10;66.84;101741.50;4990961;28;20235;-70
2023/04/30 07:18:30;;;;;;;5.40;2.23;;;;;;;9.18;66.12;101737.59;4991480;28;20218;-70
2023/04/30 07:20:57;;;;;;;6.80;2.77;;;;;;;9.30;66.17;101738.91;4990741;28;20208;-70
2023/04/30 07:23:24;;;;;;;8.40;2.20;;;;;;;9.42;64.88;101735.75;4990491;28;20223;-70
2023/04/30 07:25:52;;;;;;;5.50;2.40;;;;;;;9.50;64.71;101738.94;4994642;28;20213;-71
2023/04/30 07:28:19;;;;;;;6.40;2.40;;;;;;;9.49;63.00;101747.00;4991625;28;20224;-70
2023/04/30 07:30:46;;;;;;;8.60;2.53;;;;;;;9.45;63.12;101740.06;4985844;28;20226;-71
2023/04/30 07:33:13;;;;;;;4.80;2.27;;;;;;;9.46;64.09;101742.69;4986134;28;20196;-70
2023/04/30 07:35:40;;;;;;;7.00;2.73;;;;;;;9.46;63.04;101732.03;4980970;28;20212;-72
2023/04/30 07:38:07;;;;;;;8.23;2.33;;;;;;;9.40;61.93;101735.81;4994744;28;20235;-70
2023/04/30 07:40:34;;;;;;;10.50;2.80;;;;;;;9.40;62.05;101737.59;4990539;28;20199;-70
2023/04/30 07:43:02;;;;;;;6.03;2.53;;;;;;;9.49;62.17;101741.69;4989176;28;20655;-71
2023/04/30 07:45:30;;;;;;;6.57;2.80;;;;;;;9.57;62.77;101734.25;4987460;28;20220;-71
2023/04/30 07:47:56;;;;;;;12.43;2.60;;;;;;;9.57;61.85;101732.44;4986729;28;20248;-70
2023/04/30 07:50:22;;;;;;;7.53;2.63;;;;;;;9.59;61.35;101733.25;4986106;28;20219;-71
2023/04/30 07:52:49;;;;;;;6.00;2.63;;;;;;;9.68;61.61;101739.97;4986097;28;20227;-70
2023/04/30 07:55:16;;;;;;;8.63;2.73;;;;;;;9.82;61.70;101744.72;4988751;28;20298;-70
2023/04/30 07:57:42;;;;;;;9.23;3.10;;;;;;;9.95;61.47;101736.13;4990004;28;20228;-70
2023/04/30 08:00:12;;;;;;;7.57;2.60;;;;;;;10.09;61.26;101740.84;4988538;28;20216;-71
2023/04/30 08:02:38;;;;;;;6.83;2.63;;;;;;;10.19;60.57;101744.00;4987511;28;20239;-70
2023/04/30 08:05:06;;;;;;;6.23;2.57;;;;;;;10.27;60.13;101740.06;4984657;28;20209;-71
2023/04/30 08:07:32;;;;;;;4.73;2.10;;;;;;;10.36;59.30;101733.47;4986364;28;20225;-71
2023/04/30 08:09:59;;;;;;;9.77;3.00;;;;;;;10.47;58.54;101738.31;4988075;28;20562;-71
2023/04/30 08:12:25;;;;;;;5.77;2.53;;;;;;;10.50;57.86;101743.50;4987567;28;20212;-70
2023/04/30 08:14:59;;;;;;;7.13;3.03;;;;;;;10.51;57.42;101755.88;4988313;28;20201;-71
2023/04/30 08:17:27;;;;;;;4.37;2.30;;;;;;;10.56;57.84;101740.56;4987207;28;20742;-70
2023/04/30 08:19:54;;;;;;;5.53;2.23;;;;;;;10.70;57.97;101738.13;4988724;28;20209;-70
2023/04/30 08:22:20;;;;;;;4.80;2.20;;;;;;;10.85;57.38;101739.19;4988679;28;20220;-70
2023/04/30 08:24:48;;;;;;;7.03;3.20;;;;;;;10.99;57.34;101742.94;4987935;28;20231;-70
2023/04/30 08:27:15;;;;;;;9.00;2.97;;;;;;;11.13;56.75;101740.47;4984628;28;20229;-70
2023/04/30 08:29:41;;;;;;;8.97;2.47;;;;;;;11.26;55.76;101730.09;4987805;28;20322;-71
2023/04/30 08:32:08;;;;;;;6.70;2.50;;;;;;;11.32;55.18;101735.09;4983601;28;20213;-71
2023/04/30 08:34:35;;;;;;;5.03;2.50;;;;;;;11.32;54.07;101735.09;4985034;28;20199;-71
2023/04/30 08:37:02;;;;;;;6.87;2.67;;;;;;;11.36;53.71;101726.00;4983966;28;20230;-70
2023/04/30 08:39:28;;;;;;;4.97;2.67;;;;;;;11.48;54.29;101729.84;4986953;28;20220;-70
2023/04/30 08:41:56;;;;;;;5.83;2.97;;;;;;;11.58;53.29;101735.63;4988875;28;20211;-70
2023/04/30 08:44:23;;;;;;;8.70;2.87;;;;;;;11.69;53.51;101731.44;4986556;28;20231;-70
2023/04/30 08:46:54;;;;;;;6.10;2.20;;;;;;;11.82;52.69;101727.25;4986664;28;20224;-71
2023/04/30 08:49:21;;;;;;;6.73;2.60;;;;;;;11.92;52.41;101729.44;4984426;28;20223;-69
2023/04/30 08:51:49;;;;;;;6.77;2.60;;;;;;;12.05;52.41;101726.06;4987094;28;20223;-69
2023/04/30 08:54:17;;;;;;;7.63;2.33;;;;;;;12.16;51.92;101722.84;4986302;28;20926;-69
2023/04/30 08:56:45;;;;;;;6.83;2.97;;;;;;;12.24;51.61;101722.41;4985247;28;20235;-71
2023/04/30 08:59:12;;;;;;;6.97;2.57;;;;;;;12.33;51.20;101717.47;4987248;28;20215;-71
2023/04/30 09:01:38;;;;;;;7.73;2.80;;;;;;;12.42;51.59;101713.41;4984908;28;20207;-71
2023/04/30 09:04:06;;;;;;;5.80;2.43;;;;;;;12.56;50.98;101718.00;4984556;28;20238;-71
2023/04/30 09:06:33;;;;;;;5.57;2.80;;;;;;;12.61;49.65;101721.28;4986467;28;20648;-71
2023/04/30 09:09:09;;;;;;;7.33;2.57;;;;;;;12.59;49.67;101721.38;4986762;28;20218;-71
2023/04/30 09:11:36;;;;;;;5.63;2.50;;;;;;;12.59;49.49;101720.50;4984290;28;20203;-71
2023/04/30 09:14:03;;;;;;;7.37;3.33;;;;;;;12.64;50.23;101711.31;4986149;28;20688;-71
2023/04/30 09:16:44;;;;;;;6.73;2.47;;;;;;;12.70;50.17;101718.13;4985871;28;20231;-73
2023/04/30 09:19:10;;;;;;;5.30;2.37;;;;;;;12.73;49.51;101717.94;4982225;28;20211;-70
2023/04/30 09:21:37;;;;;;;4.93;3.40;;;;;;;12.79;49.75;101714.94;4979913;28;20219;-71
2023/04/30 09:24:06;;;;;;;7.70;3.07;;;;;;;12.88;49.92;101713.56;4984253;28;20228;-71
2023/04/30 09:26:33;;;;;;;7.47;2.87;;;;;;;12.93;49.09;101714.16;4986627;28;20224;-71
2023/04/30 09:29:06;;;;;;;8.37;2.67;;;;;;;13.05;49.63;101713.47;4991127;28;20215;-71
2023/04/30 09:31:33;;;;;;;6.33;2.53;;;;;;;13.14;48.53;101704.91;4984273;28;20251;-72
2023/04/30 09:33:59;;;;;;;8.47;2.70;;;;;;;13.19;48.11;101711.78;4985138;28;20720;-71
2023/04/30 09:36:26;;;;;;;5.90;2.43;;;;;;;13.27;48.49;101705.97;4984506;28;20236;-71
2023/04/30 09:38:53;;;;;;;6.57;2.20;;;;;;;13.31;47.09;101704.84;4979568;28;20311;-72
2023/04/30 09:41:26;;;;;;;6.40;2.57;;;;;;;13.34;47.53;101703.81;4984462;28;20202;-72
2023/04/30 09:43:52;;;;;;;4.87;1.97;;;;;;;13.36;47.08;101702.78;4981389;28;20309;-70
2023/04/30 09:46:20;;;;;;;7.13;1.90;;;;;;;13.34;46.17;101706.47;4983150;28;20204;-71
2023/04/30 09:48:48;;;;;;;4.67;1.90;;;;;;;13.32;45.58;101706.56;4985758;28;20254;-71
2023/04/30 09:51:14;;;;;;;9.00;2.83;;;;;;;13.35;45.43;101697.50;4988716;28;20302;-70
2023/04/30 09:53:42;;;;;;;5.80;2.13;;;;;;;13.40;45.60;101695.44;4978648;28;20203;-70
2023/04/30 09:56:12;;;;;;;7.17;2.80;;;;;;;13.45;44.62;101696.88;4984858;28;20212;-73
2023/04/30 09:58:44;;;;;;;7.30;2.23;;;;;;;13.53;44.22;101696.44;4982406;28;20214;-71
2023/04/30 10:01:11;;;;;;;7.23;2.33;;;;;;;13.61;44.54;101691.50;4990875;28;20207;-71
2023/04/30 10:03:39;;;;;;;8.27;2.10;;;;;;;13.70;45.42;101698.97;4983413;28;20333;-71
2023/04/30 10:06:06;;;;;;;4.47;1.93;;;;;;;13.76;44.69;101697.75;4987882;28;20199;-70
2023/04/30 10:08:41;;;;;;;5.00;2.03;;;;;;;13.78;44.65;101691.34;4980883;28;20792;-71
2023/04/30 10:11:11;;;;;;;5.77;2.27;;;;;;;13.85;44.39;101695.34;4985854;28;20211;-70
2023/04/30 10:13:45;;;;;;;6.97;2.20;;;;;;;13.86;43.34;101690.88;4983326;28;20854;-70
2023/04/30 10:16:20;;;;;;;4.63;2.00;;;;;;;13.89;43.95;101686.19;4979047;28;20204;-71
2023/04/30 10:18:51;;;;;;;7.37;2.03;;;;;;;13.97;43.21;101690.25;4982512;28;20203;-71
2023/04/30 10:21:22;;;;;;;5.73;2.17;;;;;;;14.03;42.96;101685.34;4982367;28;20269;-71
2023/04/30 10:23:49;;;;;;;8.63;2.67;;;;;;;14.12;43.23;101679.44;4984065;28;20239;-71
2023/04/30 10:26:16;;;;;;;6.07;2.40;;;;;;;14.18;43.14;101675.50;4986087;28;20211;-71
2023/04/30 10:28:45;;;;;;;4.67;2.77;;;;;;;14.25;43.44;101674.16;4987772;28;20204;-70
2023/04/30 10:31:13;;;;;;;5.53;2.30;;;;;;;14.29;42.72;101675.72;4981354;28;20224;-70
2023/04/30 10:33:48;;;;;;;4.83;2.20;;;;;;;14.33;42.61;101682.56;4984327;28;20216;-71
2023/04/30 10:36:22;;;;;;;5.87;2.10;;;;;;;14.29;40.93;101674.84;4985738;28;20548;-71
2023/04/30 10:38:50;;;;;;;6.13;2.10;;;;;;;14.30;41.48;101673.88;4986018;28;20217;-71
2023/04/30 10:41:20;;;;;;;7.40;2.60;;;;;;;14.37;41.24;101660.00;4985719;28;20580;-71
2023/04/30 10:43:48;;;;;;;8.77;2.20;;;;;;;14.43;41.14;101665.00;4988702;28;20232;-71
2023/04/30 10:46:22;;;;;;;3.67;2.20;;;;;;;14.50;41.35;101661.00;4990790;28;20251;-71
2023/04/30 10:48:48;;;;;;;4.17;2.40;;;;;;;14.58;41.29;101652.44;4985655;28;20657;-68
2023/04/30 10:51:15;;;;;;;6.83;2.30;;;;;;;14.62;40.56;101645.94;4980079;28;20643;-71
2023/04/30 10:53:42;;;;;;;6.07;2.70;;;;;;;14.65;40.69;101645.75;4986668;28;20204;-71
2023/04/30 10:56:09;;;;;;;5.47;1.83;;;;;;;14.64;40.56;101648.50;4985324;28;20212;-71
2023/04/30 10:58:37;;;;;;;4.80;2.10;;;;;;;14.71;41.46;101642.63;4981956;28;20224;-71
2023/04/30 11:01:08;;;;;;;6.30;2.20;;;;;;;14.73;40.85;101651.44;4974944;28;20201;-71
2023/04/30 11:03:36;;;;;;;4.00;2.40;;;;;;;14.76;41.13;101632.47;4978376;28;20272;-71
2023/04/30 11:06:08;;;;;;;5.13;2.67;;;;;;;14.85;40.82;101636.41;4989481;28;20218;-71
2023/04/30 11:08:36;;;;;;;6.00;2.40;;;;;;;14.89;40.58;101621.81;4987638;28;20415;-71
2023/04/30 11:11:04;;;;;;;5.27;2.50;;;;;;;14.90;40.08;101627.06;4983382;28;20204;-68
2023/04/30 11:13:40;;;;;;;4.33;2.10;;;;;;;14.93;40.17;101621.50;4988709;28;20278;-69
2023/04/30 11:16:08;;;;;;;5.77;2.20;;;;;;;14.99;40.40;101630.97;4984183;28;20206;-68
2023/04/30 11:18:41;;;;;;;5.20;2.20;;;;;;;15.03;39.47;101626.28;4988364;28;20208;-70
2023/04/30 11:21:09;;;;;;;3.40;1.90;;;;;;;14.99;39.64;101625.63;4986470;28;20217;-71
2023/04/30 11:23:36;;;;;;;5.53;2.43;;;;;;;15.00;39.86;101629.16;4987155;28;20730;-71
2023/04/30 11:26:03;;;;;;;3.27;2.27;;;;;;;15.02;39.73;101628.09;4986695;28;20209;-71
2023/04/30 11:28:33;;;;;;;5.93;2.33;;;;;;;15.09;39.76;101618.66;4986240;28;20210;-68
2023/04/30 11:31:00;;;;;;;4.50;2.07;;;;;;;15.13;39.58;101617.50;4992842;28;20297;-68
2023/04/30 11:33:29;;;;;;;4.50;2.13;;;;;;;15.26;40.22;101617.53;4989766;28;20206;-69